createdAt,value
2024-01-22T00:00:30.959Z,100.00
2024-01-22T00:02:58.041Z,100.00
2024-01-22T00:05:25.083Z,100.00
2024-01-22T00:07:52.120Z,100.00
2024-01-22T00:10:19.139Z,100.00
2024-01-22T00:12:46.163Z,100.00
2024-01-22T00:15:13.696Z,100.00
2024-01-22T00:17:40.884Z,100.00
2024-01-22T00:20:08.738Z,100.00
2024-01-22T00:22:37.108Z,100.00
2024-01-22T00:25:05.371Z,100.00
2024-01-22T00:27:32.339Z,100.00
2024-01-22T00:29:59.666Z,100.00
2024-01-22T00:32:26.748Z,100.00
2024-01-22T00:34:53.780Z,100.00
2024-01-22T00:37:20.801Z,100.00
2024-01-22T00:39:47.883Z,100.00
2024-01-22T00:42:14.954Z,100.00
2024-01-22T00:44:42.239Z,100.00
2024-01-22T00:47:09.215Z,100.00
2024-01-22T00:49:36.217Z,100.00
2024-01-22T00:52:03.361Z,100.00
2024-01-22T00:54:30.338Z,100.00
2024-01-22T00:56:58.386Z,100.00
2024-01-22T00:59:25.432Z,100.00
2024-01-22T01:01:52.513Z,100.00
2024-01-22T01:04:19.604Z,100.00
2024-01-22T01:06:46.723Z,100.00
2024-01-22T01:09:14.211Z,100.00
2024-01-22T01:11:41.409Z,100.00
2024-01-22T01:14:09.643Z,100.00
2024-01-22T01:16:36.649Z,100.00
2024-01-22T01:19:03.934Z,100.00
2024-01-22T01:21:31.047Z,100.00
2024-01-22T01:23:58.135Z,100.00
2024-01-22T01:26:25.151Z,100.00
2024-01-22T01:28:53.434Z,100.00
2024-01-22T01:31:21.832Z,100.00
2024-01-22T01:33:49.969Z,100.00
2024-01-22T01:36:17.169Z,100.00
2024-01-22T01:38:44.183Z,100.00
2024-01-22T01:41:11.506Z,100.00
2024-01-22T01:43:38.476Z,100.00
2024-01-22T01:46:05.443Z,100.00
2024-01-22T01:48:33.334Z,100.00
2024-01-22T01:51:02.232Z,100.00
2024-01-22T01:53:30.518Z,100.00
2024-01-22T01:55:59.164Z,100.00
2024-01-22T01:58:26.553Z,100.00
2024-01-22T02:00:57.755Z,100.00
2024-01-22T02:03:25.474Z,100.00
2024-01-22T02:05:52.541Z,100.00
2024-01-22T02:08:19.545Z,100.00
2024-01-22T02:10:49.608Z,100.00
2024-01-22T02:13:16.723Z,100.00
2024-01-22T02:15:44.069Z,100.00
2024-01-22T02:18:11.387Z,100.00
2024-01-22T02:20:38.597Z,100.00
2024-01-22T02:23:09.034Z,100.00
2024-01-22T02:25:36.032Z,100.00
2024-01-22T02:28:03.238Z,100.00
2024-01-22T02:30:30.241Z,100.00
2024-01-22T02:32:57.288Z,100.00
2024-01-22T02:35:24.404Z,100.00
2024-01-22T02:37:51.465Z,100.00
2024-01-22T02:40:18.485Z,100.00
2024-01-22T02:42:45.625Z,100.00
2024-01-22T02:45:12.730Z,100.00
2024-01-22T02:47:39.799Z,100.00
2024-01-22T02:50:08.039Z,100.00
2024-01-22T02:52:35.065Z,100.00
2024-01-22T02:55:02.120Z,100.00
2024-01-22T02:57:29.156Z,100.00
2024-01-22T02:59:56.251Z,100.00
2024-01-22T03:02:23.309Z,100.00
2024-01-22T03:04:50.329Z,100.00
2024-01-22T03:07:17.479Z,100.00
2024-01-22T03:09:45.134Z,100.00
2024-01-22T03:12:13.757Z,100.00
2024-01-22T03:14:40.758Z,100.00
2024-01-22T03:17:07.811Z,100.00
2024-01-22T03:19:35.021Z,100.00
2024-01-22T03:22:02.076Z,100.00
2024-01-22T03:24:31.840Z,100.00
2024-01-22T03:26:59.966Z,100.00
2024-01-22T03:29:26.970Z,100.00
2024-01-22T03:31:54.929Z,100.00
2024-01-22T03:34:22.482Z,100.00
2024-01-22T03:36:49.593Z,100.00
2024-01-22T03:39:16.729Z,100.00
2024-01-22T03:41:43.917Z,100.00
2024-01-22T03:44:10.880Z,100.00
2024-01-22T03:46:37.862Z,100.00
2024-01-22T03:49:05.096Z,100.00
2024-01-22T03:51:32.261Z,100.00
2024-01-22T03:53:59.337Z,100.00
2024-01-22T03:56:26.332Z,100.00
2024-01-22T03:58:54.276Z,100.00
2024-01-22T04:01:23.006Z,100.00
2024-01-22T04:03:52.261Z,100.00
2024-01-22T04:06:19.484Z,100.00
2024-01-22T04:08:46.670Z,100.00
2024-01-22T04:11:13.934Z,100.00
2024-01-22T04:13:44.606Z,100.00
2024-01-22T04:16:15.299Z,100.00
2024-01-22T04:18:43.163Z,100.00
2024-01-22T04:21:11.618Z,100.00
2024-01-22T04:23:38.677Z,100.00
2024-01-22T04:26:07.367Z,100.00
2024-01-22T04:28:34.463Z,100.00
2024-01-22T04:31:02.075Z,100.00
2024-01-22T04:33:29.213Z,100.00
2024-01-22T04:35:56.295Z,100.00
2024-01-22T04:38:23.543Z,100.00
2024-01-22T04:40:50.628Z,100.00
2024-01-22T04:43:17.695Z,100.00
2024-01-22T04:45:44.720Z,100.00
2024-01-22T04:48:12.095Z,100.00
2024-01-22T04:50:39.156Z,100.00
2024-01-22T04:53:06.456Z,100.00
2024-01-22T04:55:35.553Z,100.00
2024-01-22T04:58:04.807Z,100.00
2024-01-22T05:00:33.005Z,100.00
2024-01-22T05:03:06.083Z,100.00
2024-01-22T05:05:35.590Z,100.00
2024-01-22T05:08:03.136Z,100.00
2024-01-22T05:10:30.156Z,100.00
2024-01-22T05:12:57.256Z,100.00
2024-01-22T05:15:24.314Z,100.00
2024-01-22T05:17:51.523Z,100.00
2024-01-22T05:20:18.716Z,100.00
2024-01-22T05:22:46.917Z,100.00
2024-01-22T05:25:14.260Z,100.00
2024-01-22T05:27:45.841Z,100.00
2024-01-22T05:30:14.179Z,100.00
2024-01-22T05:32:41.547Z,100.00
2024-01-22T05:35:09.222Z,100.00
2024-01-22T05:37:36.216Z,100.00
2024-01-22T05:40:05.290Z,100.00
2024-01-22T05:42:32.291Z,100.00
2024-01-22T05:44:59.477Z,100.00
2024-01-22T05:47:26.538Z,100.00
2024-01-22T05:49:53.744Z,100.00
2024-01-22T05:52:21.407Z,100.00
2024-01-22T05:54:48.437Z,100.00
2024-01-22T05:57:15.681Z,100.00
2024-01-22T05:59:42.732Z,100.00
2024-01-22T06:02:09.816Z,100.00
2024-01-22T06:04:36.978Z,100.00
2024-01-22T06:07:06.054Z,100.00
2024-01-22T06:09:33.500Z,100.00
2024-01-22T06:12:00.601Z,100.00
2024-01-22T06:14:27.633Z,100.00
2024-01-22T06:16:54.597Z,100.00
2024-01-22T06:19:21.654Z,100.00
2024-01-22T06:21:48.692Z,100.00
2024-01-22T06:24:16.859Z,100.00
2024-01-22T06:26:43.950Z,100.00
2024-01-22T06:29:15.044Z,100.00
2024-01-22T06:31:45.294Z,100.00
2024-01-22T06:34:15.477Z,100.00
2024-01-22T06:36:42.648Z,100.00
2024-01-22T06:39:09.766Z,100.00
2024-01-22T06:41:37.237Z,100.00
2024-01-22T06:44:04.366Z,100.00
2024-01-22T06:46:31.340Z,100.00
2024-01-22T06:48:58.617Z,100.00
2024-01-22T06:51:31.055Z,100.00
2024-01-22T06:54:02.277Z,100.00
2024-01-22T06:56:29.376Z,100.00
2024-01-22T06:58:57.516Z,100.00
2024-01-22T07:01:24.680Z,100.00
2024-01-22T07:03:51.774Z,100.00
2024-01-22T07:06:22.135Z,100.00
2024-01-22T07:08:50.042Z,100.00
2024-01-22T07:11:17.503Z,100.00
2024-01-22T07:13:44.535Z,100.00
2024-01-22T07:16:13.304Z,100.00
2024-01-22T07:18:41.269Z,100.00
2024-01-22T07:21:08.428Z,100.00
2024-01-22T07:23:35.509Z,100.00
2024-01-22T07:26:02.528Z,100.00
2024-01-22T07:28:29.567Z,100.00
2024-01-22T07:30:56.556Z,100.00
2024-01-22T07:33:23.778Z,100.00
2024-01-22T07:35:50.917Z,100.00
2024-01-22T07:38:17.909Z,100.00
2024-01-22T07:40:44.953Z,100.00
2024-01-22T07:43:12.024Z,100.00
2024-01-22T07:45:38.997Z,100.00
2024-01-22T07:48:06.488Z,100.00
2024-01-22T07:50:33.725Z,100.00
2024-01-22T07:53:00.953Z,100.00
2024-01-22T07:55:28.161Z,100.00
2024-01-22T07:57:55.276Z,100.00
2024-01-22T08:00:22.556Z,99.93
2024-01-22T08:02:49.642Z,99.79
2024-01-22T08:05:16.819Z,99.64
2024-01-22T08:07:45.379Z,99.55
2024-01-22T08:10:14.187Z,99.68
2024-01-22T08:12:41.796Z,99.45
2024-01-22T08:15:11.139Z,99.48
2024-01-22T08:17:39.517Z,98.78
2024-01-22T08:20:08.907Z,98.25
2024-01-22T08:22:36.065Z,98.49
2024-01-22T08:25:03.122Z,98.25
2024-01-22T08:27:30.135Z,98.61
2024-01-22T08:29:57.178Z,98.35
2024-01-22T08:32:24.451Z,97.87
2024-01-22T08:34:51.645Z,97.57
2024-01-22T08:37:20.354Z,97.53
2024-01-22T08:39:47.354Z,97.39
2024-01-22T08:42:14.387Z,97.06
2024-01-22T08:44:41.530Z,97.04
2024-01-22T08:47:08.625Z,96.74
2024-01-22T08:49:37.163Z,96.21
2024-01-22T08:52:04.763Z,95.72
2024-01-22T08:54:31.778Z,95.27
2024-01-22T08:56:58.827Z,95.27
2024-01-22T08:59:25.887Z,95.31
2024-01-22T09:01:52.897Z,94.82
2024-01-22T09:04:20.634Z,94.58
2024-01-22T09:06:47.837Z,94.54
2024-01-22T09:09:14.931Z,94.18
2024-01-22T09:11:42.018Z,94.35
2024-01-22T09:14:09.260Z,93.93
2024-01-22T09:16:36.348Z,93.67
2024-01-22T09:19:06.940Z,93.57
2024-01-22T09:21:34.844Z,93.92
2024-01-22T09:24:02.952Z,93.68
2024-01-22T09:26:30.037Z,93.89
2024-01-22T09:28:57.179Z,94.18
2024-01-22T09:31:24.286Z,93.24
2024-01-22T09:33:54.686Z,93.73
2024-01-22T09:36:22.782Z,93.24
2024-01-22T09:38:50.122Z,92.83
2024-01-22T09:41:17.739Z,92.39
2024-01-22T09:43:45.042Z,91.44
2024-01-22T09:46:12.239Z,91.06
2024-01-22T09:48:39.567Z,91.29
2024-01-22T09:51:08.141Z,91.32
2024-01-22T09:53:38.655Z,91.19
2024-01-22T09:56:06.701Z,91.64
2024-01-22T09:58:39.883Z,90.84
2024-01-22T10:01:12.172Z,90.66
2024-01-22T10:03:40.846Z,90.53
2024-01-22T10:06:08.345Z,90.10
2024-01-22T10:08:35.409Z,90.08
2024-01-22T10:11:04.214Z,89.40
2024-01-22T10:13:31.235Z,88.24
2024-01-22T10:16:11.635Z,86.29
2024-01-22T10:18:39.558Z,85.24
2024-01-22T10:21:06.915Z,82.99
2024-01-22T10:23:35.052Z,82.57
2024-01-22T10:26:08.531Z,81.54
2024-01-22T10:28:35.759Z,80.74
2024-01-22T10:31:05.581Z,79.70
2024-01-22T10:33:33.088Z,79.26
2024-01-22T10:36:18.662Z,79.14
2024-01-22T10:38:48.294Z,77.90
2024-01-22T10:41:23.528Z,77.25
2024-01-22T10:43:51.998Z,78.11
2024-01-22T10:46:20.976Z,76.64
2024-01-22T10:48:49.259Z,76.71
2024-01-22T10:51:16.966Z,76.69
2024-01-22T10:53:46.209Z,76.55
2024-01-22T10:56:25.390Z,76.57
2024-01-22T10:58:53.726Z,76.34
2024-01-22T11:01:25.875Z,76.62
2024-01-22T11:03:56.177Z,76.56
2024-01-22T11:06:27.307Z,75.91
2024-01-22T11:08:58.464Z,76.27
2024-01-22T11:11:28.289Z,76.64
2024-01-22T11:13:58.419Z,77.03
2024-01-22T11:16:26.172Z,76.96
2024-01-22T11:19:05.271Z,77.09
2024-01-22T11:21:43.619Z,77.37
2024-01-22T11:24:21.319Z,77.49
2024-01-22T11:26:54.378Z,77.32
2024-01-22T11:29:29.977Z,77.01
2024-01-22T11:31:58.171Z,77.62
2024-01-22T11:34:42.393Z,78.31
2024-01-22T11:37:12.198Z,77.63
2024-01-22T11:39:45.497Z,78.55
2024-01-22T11:42:18.800Z,78.11
2024-01-22T11:44:50.283Z,78.86
2024-01-22T11:47:21.305Z,78.96
2024-01-22T11:49:49.366Z,78.62
2024-01-22T11:52:24.641Z,79.70
2024-01-22T11:55:09.534Z,80.96
2024-01-22T11:57:39.283Z,81.46
2024-01-22T12:00:21.453Z,81.23
2024-01-22T12:02:51.669Z,80.54
2024-01-22T12:05:20.160Z,80.75
2024-01-22T12:07:49.914Z,80.65
2024-01-22T12:10:22.647Z,81.15
2024-01-22T12:13:06.405Z,80.79
2024-01-22T12:15:34.898Z,80.40
2024-01-22T12:18:05.708Z,80.26
2024-01-22T12:20:33.016Z,80.30
2024-01-22T12:23:06.294Z,79.75
2024-01-22T12:25:42.744Z,80.51
2024-01-22T12:28:15.351Z,81.12
2024-01-22T12:30:44.605Z,82.16
2024-01-22T12:33:26.510Z,83.85
2024-01-22T12:36:15.956Z,84.52
2024-01-22T12:38:55.736Z,85.54
2024-01-22T12:41:24.797Z,86.51
2024-01-22T12:43:58.366Z,87.40
2024-01-22T12:46:26.472Z,88.30
2024-01-22T12:48:57.554Z,88.48
2024-01-22T12:51:28.449Z,90.10
2024-01-22T12:53:56.688Z,90.21
2024-01-22T12:56:23.922Z,90.65
2024-01-22T12:58:53.337Z,91.72
2024-01-22T13:01:20.465Z,92.65
2024-01-22T13:03:47.772Z,93.75
2024-01-22T13:06:15.157Z,93.99
2024-01-22T13:08:42.423Z,94.85
2024-01-22T13:11:10.113Z,95.59
2024-01-22T13:13:37.286Z,96.10
2024-01-22T13:16:13.986Z,96.98
2024-01-22T13:18:46.026Z,97.85
2024-01-22T13:21:14.897Z,98.24
2024-01-22T13:23:42.550Z,98.39
2024-01-22T13:26:10.874Z,99.43
2024-01-22T13:28:38.334Z,100.00
2024-01-22T13:31:05.742Z,100.00
2024-01-22T13:33:33.039Z,100.00
2024-01-22T13:36:00.180Z,100.00
2024-01-22T13:38:30.453Z,100.00
2024-01-22T13:40:57.840Z,100.00
2024-01-22T13:43:24.871Z,100.00
2024-01-22T13:45:52.636Z,100.00
2024-01-22T13:48:19.803Z,100.00
2024-01-22T13:50:47.078Z,100.00
2024-01-22T13:53:14.189Z,100.00
2024-01-22T13:55:41.352Z,100.00
2024-01-22T13:58:09.265Z,100.00
2024-01-22T14:00:36.919Z,100.00
2024-01-22T14:03:08.110Z,100.00
2024-01-22T14:05:35.290Z,100.00
2024-01-22T14:08:05.222Z,100.00
2024-01-22T14:10:32.221Z,100.00
2024-01-22T14:12:59.304Z,100.00
2024-01-22T14:15:27.212Z,100.00
2024-01-22T14:17:54.543Z,100.00
2024-01-22T14:20:21.868Z,100.00
2024-01-22T14:22:49.806Z,100.00
2024-01-22T14:25:16.937Z,100.00
2024-01-22T14:27:46.956Z,100.00
2024-01-22T14:30:14.915Z,100.00
2024-01-22T14:32:45.803Z,100.00
2024-01-22T14:35:14.092Z,100.00
2024-01-22T14:37:41.339Z,100.00
2024-01-22T14:40:09.646Z,100.00
2024-01-22T14:42:36.816Z,100.00
2024-01-22T14:45:04.452Z,100.00
2024-01-22T14:47:31.589Z,100.00
2024-01-22T14:49:58.793Z,100.00
2024-01-22T14:52:27.801Z,100.00
2024-01-22T14:54:55.582Z,100.00
2024-01-22T14:57:22.822Z,100.00
2024-01-22T14:59:50.268Z,100.00
2024-01-22T15:02:17.436Z,100.00
2024-01-22T15:04:44.452Z,100.00
2024-01-22T15:07:11.499Z,100.00
2024-01-22T15:09:40.075Z,100.00
2024-01-22T15:12:08.320Z,100.00
2024-01-22T15:14:37.073Z,100.00
2024-01-22T15:17:04.374Z,100.00
2024-01-22T15:19:31.589Z,100.00
2024-01-22T15:22:01.494Z,100.00
2024-01-22T15:24:30.175Z,100.00
2024-01-22T15:26:57.987Z,100.00
2024-01-22T15:29:25.908Z,100.00
2024-01-22T15:31:53.967Z,100.00
2024-01-22T15:34:21.149Z,100.00
2024-01-22T15:36:48.564Z,100.00
2024-01-22T15:39:16.019Z,100.00
2024-01-22T15:41:44.860Z,100.00
2024-01-22T15:44:12.444Z,100.00
2024-01-22T15:46:40.216Z,100.00
2024-01-22T15:49:08.745Z,100.00
2024-01-22T15:51:35.962Z,100.00
2024-01-22T15:54:03.684Z,100.00
2024-01-22T15:56:31.170Z,100.00
2024-01-22T15:58:58.198Z,100.00
2024-01-22T16:01:27.150Z,100.00
2024-01-22T16:03:56.335Z,100.00
2024-01-22T16:06:24.344Z,100.00
2024-01-22T16:08:51.986Z,100.00
2024-01-22T16:11:19.299Z,100.00
2024-01-22T16:13:49.764Z,100.00
2024-01-22T16:16:17.709Z,100.00
2024-01-22T16:18:45.989Z,100.00
2024-01-22T16:21:14.069Z,100.00
2024-01-22T16:23:41.542Z,100.00
2024-01-22T16:26:09.175Z,100.00
2024-01-22T16:28:38.004Z,100.00
2024-01-22T16:31:05.551Z,100.00
2024-01-22T16:33:37.001Z,100.00
2024-01-22T16:36:07.291Z,100.00
2024-01-22T16:38:34.746Z,100.00
2024-01-22T16:41:01.984Z,100.00
2024-01-22T16:43:29.213Z,100.00
2024-01-22T16:45:56.797Z,100.00
2024-01-22T16:48:24.140Z,100.00
2024-01-22T16:50:51.398Z,100.00
2024-01-22T16:53:18.410Z,100.00
2024-01-22T16:55:45.558Z,100.00
2024-01-22T16:58:13.691Z,100.00
2024-01-22T17:00:40.883Z,100.00
2024-01-22T17:03:08.502Z,100.00
2024-01-22T17:05:35.663Z,100.00
2024-01-22T17:08:02.676Z,100.00
2024-01-22T17:10:30.032Z,100.00
2024-01-22T17:12:57.134Z,100.00
2024-01-22T17:15:24.234Z,100.00
2024-01-22T17:17:52.642Z,100.00
2024-01-22T17:20:26.156Z,100.00
2024-01-22T17:22:59.968Z,100.00
2024-01-22T17:25:28.224Z,100.00
2024-01-22T17:27:55.734Z,100.00
2024-01-22T17:30:23.025Z,100.00
2024-01-22T17:32:50.892Z,100.00
2024-01-22T17:35:18.761Z,100.00
2024-01-22T17:37:46.291Z,100.00
2024-01-22T17:40:14.046Z,100.00
2024-01-22T17:42:41.560Z,100.00
2024-01-22T17:45:09.150Z,100.00
2024-01-22T17:47:36.363Z,100.00
2024-01-22T17:50:03.778Z,100.00
2024-01-22T17:52:31.083Z,100.00
2024-01-22T17:54:58.136Z,100.00
2024-01-22T17:57:25.237Z,100.00
2024-01-22T17:59:52.358Z,100.00
2024-01-22T18:02:19.511Z,100.00
2024-01-22T18:04:46.752Z,100.00
2024-01-22T18:07:13.757Z,100.00
2024-01-22T18:09:40.805Z,100.00
2024-01-22T18:12:09.398Z,100.00
2024-01-22T18:14:39.713Z,100.00
2024-01-22T18:17:07.008Z,100.00
2024-01-22T18:19:34.676Z,100.00
2024-01-22T18:22:02.072Z,100.00
2024-01-22T18:24:29.583Z,100.00
2024-01-22T18:26:56.651Z,100.00
2024-01-22T18:29:24.553Z,100.00
2024-01-22T18:31:51.595Z,100.00
2024-01-22T18:34:18.757Z,100.00
2024-01-22T18:36:45.829Z,100.00
2024-01-22T18:39:14.497Z,100.00
2024-01-22T18:41:41.789Z,100.00
2024-01-22T18:44:09.353Z,100.00
2024-01-22T18:46:37.334Z,100.00
2024-01-22T18:49:05.518Z,100.00
2024-01-22T18:51:34.194Z,100.00
2024-01-22T18:54:01.847Z,100.00
2024-01-22T18:56:28.964Z,100.00
2024-01-22T18:58:56.684Z,100.00
2024-01-22T19:01:24.327Z,100.00
2024-01-22T19:03:51.617Z,100.00
2024-01-22T19:06:19.458Z,100.00
2024-01-22T19:08:47.739Z,100.00
2024-01-22T19:11:17.084Z,100.00
2024-01-22T19:13:45.389Z,100.00
2024-01-22T19:16:14.659Z,100.00
2024-01-22T19:18:42.577Z,100.00
2024-01-22T19:21:09.906Z,100.00
2024-01-22T19:23:36.946Z,100.00
2024-01-22T19:26:04.175Z,100.00
2024-01-22T19:28:32.019Z,100.00
2024-01-22T19:31:03.384Z,100.00
2024-01-22T19:33:30.460Z,100.00
2024-01-22T19:35:57.551Z,100.00
2024-01-22T19:38:24.536Z,100.00
2024-01-22T19:40:52.576Z,100.00
2024-01-22T19:43:22.573Z,100.00
2024-01-22T19:45:49.575Z,100.00
2024-01-22T19:48:16.853Z,100.00
2024-01-22T19:50:43.965Z,100.00
2024-01-22T19:53:11.016Z,100.00
2024-01-22T19:55:38.023Z,100.00
2024-01-22T19:58:05.148Z,100.00
2024-01-22T20:00:32.241Z,100.00
2024-01-22T20:02:59.350Z,100.00
2024-01-22T20:05:26.491Z,100.00
2024-01-22T20:07:54.214Z,100.00
2024-01-22T20:10:22.495Z,100.00
2024-01-22T20:12:49.792Z,100.00
2024-01-22T20:15:16.916Z,100.00
2024-01-22T20:17:43.920Z,100.00
2024-01-22T20:20:11.853Z,100.00
2024-01-22T20:22:39.105Z,100.00
2024-01-22T20:25:06.845Z,100.00
2024-01-22T20:27:35.010Z,100.00
2024-01-22T20:30:02.450Z,100.00
2024-01-22T20:32:29.522Z,100.00
2024-01-22T20:34:56.641Z,100.00
2024-01-22T20:37:23.812Z,100.00
2024-01-22T20:39:50.868Z,100.00
2024-01-22T20:42:20.609Z,100.00
2024-01-22T20:44:49.487Z,100.00
2024-01-22T20:47:17.231Z,100.00
2024-01-22T20:49:44.335Z,100.00
2024-01-22T20:52:11.617Z,100.00
2024-01-22T20:54:39.085Z,100.00
2024-01-22T20:57:06.665Z,100.00
2024-01-22T20:59:34.143Z,100.00
2024-01-22T21:02:01.423Z,100.00
2024-01-22T21:04:28.501Z,100.00
2024-01-22T21:06:55.889Z,100.00
2024-01-22T21:09:23.391Z,100.00
2024-01-22T21:11:50.794Z,100.00
2024-01-22T21:14:18.234Z,100.00
2024-01-22T21:16:47.586Z,100.00
2024-01-22T21:19:15.402Z,100.00
2024-01-22T21:21:43.461Z,100.00
2024-01-22T21:24:12.036Z,100.00
2024-01-22T21:26:39.278Z,100.00
2024-01-22T21:29:09.336Z,100.00
2024-01-22T21:31:36.530Z,100.00
2024-01-22T21:34:03.745Z,100.00
2024-01-22T21:36:30.963Z,100.00
2024-01-22T21:38:58.003Z,100.00
2024-01-22T21:41:24.985Z,100.00
2024-01-22T21:43:51.994Z,100.00
2024-01-22T21:46:23.000Z,100.00
2024-01-22T21:48:50.724Z,100.00
2024-01-22T21:51:18.085Z,100.00
2024-01-22T21:53:46.402Z,100.00
2024-01-22T21:56:14.646Z,100.00
2024-01-22T21:58:41.937Z,100.00
2024-01-22T22:01:09.252Z,100.00
2024-01-22T22:03:37.333Z,100.00
2024-01-22T22:06:06.730Z,100.00
2024-01-22T22:08:35.866Z,100.00
2024-01-22T22:11:03.702Z,100.00
2024-01-22T22:13:31.083Z,100.00
2024-01-22T22:15:59.115Z,100.00
2024-01-22T22:18:26.854Z,100.00
2024-01-22T22:20:54.533Z,100.00
2024-01-22T22:23:21.971Z,100.00
2024-01-22T22:25:49.733Z,100.00
2024-01-22T22:28:16.721Z,100.00
2024-01-22T22:30:44.013Z,100.00
2024-01-22T22:33:11.503Z,100.00
2024-01-22T22:35:39.425Z,100.00
2024-01-22T22:38:06.414Z,100.00
2024-01-22T22:40:33.475Z,100.00
2024-01-22T22:43:00.558Z,100.00
2024-01-22T22:45:27.632Z,100.00
2024-01-22T22:47:54.955Z,100.00
2024-01-22T22:50:22.035Z,100.00
2024-01-22T22:52:49.790Z,100.00
2024-01-22T22:55:17.281Z,100.00
2024-01-22T22:57:44.389Z,100.00
2024-01-22T23:00:13.866Z,100.00
2024-01-22T23:02:41.454Z,100.00
2024-01-22T23:05:09.479Z,100.00
2024-01-22T23:07:36.605Z,100.00
2024-01-22T23:10:04.025Z,100.00
2024-01-22T23:12:31.179Z,100.00
2024-01-22T23:14:58.346Z,100.00
2024-01-22T23:17:25.497Z,100.00
2024-01-22T23:19:53.718Z,100.00
2024-01-22T23:22:20.957Z,100.00
2024-01-22T23:24:48.145Z,100.00
2024-01-22T23:27:15.589Z,100.00
2024-01-22T23:29:42.715Z,100.00
2024-01-22T23:32:10.952Z,100.00
2024-01-22T23:34:38.192Z,100.00
2024-01-22T23:37:05.469Z,100.00
2024-01-22T23:39:32.540Z,100.00
2024-01-22T23:41:59.651Z,100.00
2024-01-22T23:44:26.710Z,100.00
2024-01-22T23:46:54.305Z,100.00
2024-01-22T23:49:21.737Z,100.00
2024-01-22T23:51:48.836Z,100.00
2024-01-22T23:54:16.315Z,100.00
2024-01-22T23:56:43.893Z,100.00
2024-01-22T23:59:10.890Z,100.00
